Time;durP1;ratioP1;P1;durP2;ratioP2;P2;SDS_P1;SDS_P2;PMS_P1;PMS_P2;Temp;Humidity;BMP_temperature;BMP_pressure;BME280_temperature;BME280_humidity;BME280_pressure;Samples;Min_cycle;Max_cycle;Signal;HPM_P1;HPM_P2
2023/07/22 00:01:41;;;;;;;6.03;3.42;;;19.00;73.70;;;;;;4133427;28;20042;-52
2023/07/22 00:03:45;;;;;;;7.07;3.80;;;19.00;73.80;;;;;;4133853;28;20129;-52
2023/07/22 00:05:47;;;;;;;7.93;4.40;;;19.00;73.80;;;;;;4133517;28;20058;-52
2023/07/22 00:07:50;;;;;;;5.55;3.70;;;19.00;73.80;;;;;;4132615;28;20406;-50
2023/07/22 00:09:52;;;;;;;10.95;3.83;;;19.00;73.90;;;;;;4133310;28;20053;-49
2023/07/22 00:11:54;;;;;;;10.05;4.30;;;19.00;73.80;;;;;;4133220;28;20125;-50
2023/07/22 00:13:56;;;;;;;6.45;4.43;;;18.90;73.90;;;;;;4133461;28;20116;-50
2023/07/22 00:15:59;;;;;;;7.22;4.40;;;18.90;74.00;;;;;;4133209;28;20042;-49
2023/07/22 00:18:01;;;;;;;8.93;4.07;;;18.80;74.40;;;;;;4132410;28;20046;-50
2023/07/22 00:20:06;;;;;;;10.68;4.03;;;18.80;74.30;;;;;;4133265;28;20545;-50
2023/07/22 00:22:08;;;;;;;14.75;4.35;;;18.70;74.40;;;;;;4129014;28;20062;-50
2023/07/22 00:24:10;;;;;;;7.40;4.03;;;18.70;74.40;;;;;;4117466;28;20051;-51
2023/07/22 00:26:13;;;;;;;8.68;4.28;;;18.70;74.50;;;;;;4128169;28;20129;-51
2023/07/22 00:28:15;;;;;;;6.70;4.22;;;18.70;74.60;;;;;;4132075;28;20062;-52
2023/07/22 00:30:17;;;;;;;5.55;4.00;;;18.70;74.60;;;;;;4133163;28;20042;-52
2023/07/22 00:32:19;;;;;;;6.25;3.60;;;18.70;74.80;;;;;;4132934;28;20173;-50
2023/07/22 00:34:23;;;;;;;6.57;3.95;;;18.60;74.80;;;;;;4133370;28;20061;-50
2023/07/22 00:36:26;;;;;;;8.60;3.78;;;18.60;74.90;;;;;;4132514;28;20042;-52
2023/07/22 00:38:29;;;;;;;6.18;3.95;;;18.70;75.00;;;;;;4132260;28;20091;-52
2023/07/22 00:40:32;;;;;;;5.88;3.70;;;18.60;75.10;;;;;;4132853;28;20124;-49
2023/07/22 00:42:34;;;;;;;8.05;4.32;;;18.60;75.40;;;;;;4133037;28;20081;-49
2023/07/22 00:44:37;;;;;;;4.28;3.50;;;18.60;75.20;;;;;;4133174;28;20081;-50
2023/07/22 00:46:39;;;;;;;14.05;4.53;;;18.60;75.30;;;;;;4132857;28;20508;-52
2023/07/22 00:48:42;;;;;;;7.90;4.45;;;18.60;75.40;;;;;;4131821;28;20117;-52
2023/07/22 00:50:44;;;;;;;9.65;4.05;;;18.50;75.70;;;;;;4132854;28;20414;-50
2023/07/22 00:52:47;;;;;;;8.27;4.15;;;18.50;75.70;;;;;;4132527;28;20054;-50
2023/07/22 00:54:50;;;;;;;9.43;4.18;;;18.50;76.10;;;;;;4133045;28;20077;-50
2023/07/22 00:56:53;;;;;;;9.02;3.75;;;18.50;76.40;;;;;;4132669;28;20069;-49
2023/07/22 00:58:56;;;;;;;7.50;4.03;;;18.50;76.20;;;;;;4131493;28;20498;-50
2023/07/22 01:00:58;;;;;;;10.48;4.10;;;18.50;76.80;;;;;;4132805;28;20076;-50
2023/07/22 01:03:00;;;;;;;6.85;3.90;;;18.40;76.40;;;;;;4132314;28;20104;-54
2023/07/22 01:05:03;;;;;;;9.35;4.40;;;18.50;76.40;;;;;;4132558;28;20055;-52
2023/07/22 01:07:06;;;;;;;6.22;3.92;;;18.40;76.50;;;;;;4131991;28;20046;-51
2023/07/22 01:09:10;;;;;;;11.25;4.07;;;18.40;76.40;;;;;;4131454;28;20074;-49
2023/07/22 01:11:12;;;;;;;9.20;4.18;;;18.40;76.50;;;;;;4132447;28;20104;-48
2023/07/22 01:13:14;;;;;;;11.18;4.18;;;18.40;76.80;;;;;;4132188;28;20133;-50
2023/07/22 01:15:17;;;;;;;12.98;4.75;;;18.40;76.40;;;;;;4132432;28;20413;-49
2023/07/22 01:17:20;;;;;;;7.32;4.32;;;18.40;76.30;;;;;;4131386;28;20061;-50
2023/07/22 01:19:22;;;;;;;8.95;4.32;;;18.40;76.90;;;;;;4132216;28;20053;-49
2023/07/22 01:21:25;;;;;;;5.28;4.18;;;18.30;76.80;;;;;;4132066;28;20078;-53
2023/07/22 01:23:28;;;;;;;8.25;3.95;;;18.30;76.70;;;;;;4131824;28;20092;-52
2023/07/22 01:25:31;;;;;;;4.07;3.55;;;18.30;76.80;;;;;;4132217;28;20470;-52
2023/07/22 01:27:33;;;;;;;7.32;4.10;;;18.20;77.10;;;;;;4131281;28;20057;-52
2023/07/22 01:29:35;;;;;;;7.63;4.53;;;18.20;77.40;;;;;;4131909;28;20117;-52
2023/07/22 01:31:38;;;;;;;6.65;4.28;;;18.10;77.60;;;;;;4132302;28;20119;-51
2023/07/22 01:33:40;;;;;;;7.45;4.13;;;18.10;78.00;;;;;;4131995;28;20062;-52
2023/07/22 01:35:42;;;;;;;5.85;3.92;;;18.00;78.10;;;;;;4131886;28;20122;-51
2023/07/22 01:37:44;;;;;;;8.15;4.38;;;18.10;78.40;;;;;;4129791;28;20053;-51
2023/07/22 01:39:50;;;;;;;7.55;3.67;;;18.00;77.80;;;;;;4132152;28;20545;-52
2023/07/22 01:41:52;;;;;;;8.57;4.40;;;18.10;78.10;;;;;;4132030;28;20057;-51
2023/07/22 01:43:54;;;;;;;6.88;3.75;;;18.00;78.10;;;;;;4131713;28;20050;-51
2023/07/22 01:45:56;;;;;;;8.02;3.90;;;18.00;78.10;;;;;;4131897;28;20050;-51
2023/07/22 01:47:59;;;;;;;11.15;4.45;;;18.00;78.10;;;;;;4130829;28;20042;-50
2023/07/22 01:50:01;;;;;;;11.23;4.28;;;17.90;78.40;;;;;;4131329;28;20085;-52
2023/07/22 01:52:04;;;;;;;5.88;3.53;;;17.80;78.90;;;;;;4131851;28;20508;-50
2023/07/22 01:54:07;;;;;;;6.95;4.10;;;17.80;78.90;;;;;;4131882;28;20530;-52
2023/07/22 01:56:10;;;;;;;9.05;4.32;;;17.80;78.80;;;;;;4130689;28;20050;-52
2023/07/22 01:58:12;;;;;;;7.70;3.97;;;17.80;78.90;;;;;;4131221;28;20068;-50
2023/07/22 02:00:15;;;;;;;7.50;3.88;;;17.70;78.90;;;;;;4131352;28;20062;-50
2023/07/22 02:02:17;;;;;;;12.23;4.10;;;17.70;79.20;;;;;;4131721;28;20038;-50
2023/07/22 02:04:19;;;;;;;12.68;4.13;;;17.80;79.80;;;;;;4131100;28;20048;-50
2023/07/22 02:06:21;;;;;;;9.02;4.00;;;17.80;79.00;;;;;;4131845;28;20456;-52
2023/07/22 02:08:23;;;;;;;7.57;4.20;;;17.80;79.20;;;;;;4130479;28;20409;-52
2023/07/22 02:10:25;;;;;;;6.18;4.32;;;17.70;79.30;;;;;;4131607;28;20057;-52
2023/07/22 02:12:28;;;;;;;6.40;4.60;;;17.70;79.60;;;;;;4131574;28;20121;-52
2023/07/22 02:14:31;;;;;;;5.32;4.07;;;17.70;79.10;;;;;;4131758;28;20397;-50
2023/07/22 02:16:33;;;;;;;7.57;4.57;;;17.70;79.60;;;;;;4131798;28;20050;-52
2023/07/22 02:18:35;;;;;;;8.13;4.50;;;17.70;79.70;;;;;;4130236;28;20615;-52
2023/07/22 02:20:38;;;;;;;7.55;4.70;;;17.70;79.30;;;;;;4129446;28;20054;-52
2023/07/22 02:22:40;;;;;;;7.10;4.35;;;17.70;79.20;;;;;;4124471;28;20485;-53
2023/07/22 02:24:42;;;;;;;8.10;4.45;;;17.80;79.10;;;;;;4131134;28;20050;-52
2023/07/22 02:26:45;;;;;;;7.28;4.32;;;17.80;78.90;;;;;;4131522;28;20050;-53
2023/07/22 02:28:48;;;;;;;9.10;4.40;;;17.80;79.30;;;;;;4130368;28;20046;-52
2023/07/22 02:30:52;;;;;;;5.10;4.18;;;17.80;78.90;;;;;;4129879;28;20050;-52
2023/07/22 02:32:54;;;;;;;8.25;4.10;;;17.80;79.70;;;;;;4130899;28;20057;-50
2023/07/22 02:34:56;;;;;;;8.10;4.68;;;17.80;79.30;;;;;;4131168;28;20445;-50
2023/07/22 02:36:58;;;;;;;7.63;3.78;;;17.80;79.80;;;;;;4131027;28;20046;-49
2023/07/22 02:39:00;;;;;;;10.18;4.30;;;17.70;79.90;;;;;;4130314;28;20165;-49
2023/07/22 02:41:03;;;;;;;10.15;4.68;;;17.70;80.00;;;;;;4131098;28;20101;-50
2023/07/22 02:43:06;;;;;;;6.60;4.50;;;17.70;80.10;;;;;;4131345;28;20061;-50
2023/07/22 02:45:10;;;;;;;7.55;3.60;;;17.60;80.20;;;;;;4130935;28;20104;-50
2023/07/22 02:47:14;;;;;;;6.35;4.00;;;17.60;80.40;;;;;;4115100;28;20451;-49
2023/07/22 02:49:16;;;;;;;5.15;3.58;;;17.60;80.30;;;;;;4113039;28;20074;-48
2023/07/22 02:51:18;;;;;;;5.07;3.95;;;17.50;80.30;;;;;;4128007;28;20073;-50
2023/07/22 02:53:20;;;;;;;5.07;3.65;;;17.60;80.40;;;;;;4131236;28;20473;-49
2023/07/22 02:55:23;;;;;;;11.30;4.45;;;17.60;80.80;;;;;;4130914;28;20049;-49
2023/07/22 02:57:25;;;;;;;10.10;4.65;;;17.50;80.40;;;;;;4131114;28;20516;-49
2023/07/22 02:59:27;;;;;;;5.32;4.07;;;17.50;80.40;;;;;;4130055;28;20061;-50
2023/07/22 03:01:31;;;;;;;12.77;4.72;;;17.50;80.20;;;;;;4130612;28;20038;-49
2023/07/22 03:03:33;;;;;;;8.90;4.78;;;17.50;80.10;;;;;;4131264;28;20050;-49
2023/07/22 03:05:35;;;;;;;7.53;4.65;;;17.50;80.10;;;;;;4130662;28;20046;-50
2023/07/22 03:07:38;;;;;;;4.72;3.92;;;17.50;80.50;;;;;;4130406;28;20077;-50
2023/07/22 03:09:40;;;;;;;7.60;4.60;;;17.40;80.50;;;;;;4130836;28;20050;-49
2023/07/22 03:11:42;;;;;;;7.20;4.22;;;17.40;80.50;;;;;;4130590;28;20097;-49
2023/07/22 03:13:44;;;;;;;6.20;4.40;;;17.40;80.70;;;;;;4131061;28;20057;-50
2023/07/22 03:15:46;;;;;;;8.07;4.03;;;17.40;80.90;;;;;;4130617;28;20154;-50
2023/07/22 03:17:50;;;;;;;8.52;4.38;;;17.40;80.80;;;;;;4129948;28;20046;-50
2023/07/22 03:19:52;;;;;;;6.50;4.25;;;17.50;80.50;;;;;;4130806;28;20053;-50
2023/07/22 03:21:54;;;;;;;6.80;4.35;;;17.40;80.40;;;;;;4130470;28;20042;-49
2023/07/22 03:23:57;;;;;;;6.35;4.03;;;17.40;80.20;;;;;;4130660;28;20489;-49
2023/07/22 03:25:59;;;;;;;12.18;4.75;;;17.40;80.40;;;;;;4130604;28;20412;-49
2023/07/22 03:28:03;;;;;;;8.57;4.70;;;17.40;80.40;;;;;;4129709;28;20163;-50
2023/07/22 03:30:07;;;;;;;9.63;4.55;;;17.40;80.70;;;;;;4130817;28;20078;-50
2023/07/22 03:32:09;;;;;;;9.45;4.35;;;17.40;80.90;;;;;;4131880;28;20410;-49
2023/07/22 03:34:13;;;;;;;7.65;4.07;;;17.40;81.00;;;;;;4134023;28;20412;-49
2023/07/22 03:36:15;;;;;;;5.90;4.05;;;17.40;80.80;;;;;;4134052;28;20042;-49
2023/07/22 03:38:17;;;;;;;6.80;4.20;;;17.40;81.30;;;;;;4131728;28;20456;-49
2023/07/22 03:40:20;;;;;;;7.10;4.50;;;17.40;80.90;;;;;;4133767;28;20133;-50
2023/07/22 03:42:22;;;;;;;7.45;4.25;;;17.40;81.30;;;;;;4116469;28;20130;-50
2023/07/22 03:44:25;;;;;;;5.38;3.97;;;17.40;81.60;;;;;;4134044;28;20046;-50
2023/07/22 03:46:28;;;;;;;5.90;4.50;;;17.30;81.60;;;;;;4133665;28;20402;-50
2023/07/22 03:48:30;;;;;;;7.25;4.38;;;17.30;81.50;;;;;;4132668;28;20042;-52
2023/07/22 03:50:34;;;;;;;10.27;4.63;;;17.30;82.00;;;;;;4133904;28;20572;-53
2023/07/22 03:52:36;;;;;;;5.63;4.35;;;17.30;81.80;;;;;;4133752;28;20053;-52
2023/07/22 03:54:38;;;;;;;11.90;5.00;;;17.30;82.00;;;;;;4133431;28;20549;-52
2023/07/22 03:56:41;;;;;;;8.48;4.70;;;17.30;81.70;;;;;;4133783;28;20069;-52
2023/07/22 03:58:43;;;;;;;4.53;4.07;;;17.30;81.60;;;;;;4132265;28;20104;-53
2023/07/22 04:00:48;;;;;;;7.55;4.70;;;17.20;82.00;;;;;;4133773;28;20417;-49
2023/07/22 04:02:50;;;;;;;6.18;4.65;;;17.30;81.90;;;;;;4133324;28;20507;-50
2023/07/22 04:04:53;;;;;;;6.72;4.50;;;17.20;82.20;;;;;;4133509;28;20089;-50
2023/07/22 04:06:57;;;;;;;7.68;4.70;;;17.20;82.00;;;;;;4133620;28;20057;-50
2023/07/22 04:09:00;;;;;;;8.93;4.90;;;17.30;82.00;;;;;;4132479;28;20053;-50
2023/07/22 04:11:02;;;;;;;9.10;4.97;;;17.20;82.10;;;;;;4133779;28;20077;-50
2023/07/22 04:13:04;;;;;;;12.75;4.93;;;17.20;82.20;;;;;;4133204;28;20050;-50
2023/07/22 04:15:07;;;;;;;8.27;4.88;;;17.20;82.20;;;;;;4122249;28;20085;-50
2023/07/22 04:17:09;;;;;;;7.60;5.35;;;17.20;82.10;;;;;;4133306;28;20482;-50
2023/07/22 04:19:11;;;;;;;6.35;4.85;;;17.20;82.20;;;;;;4132078;28;20129;-50
2023/07/22 04:21:13;;;;;;;7.10;4.53;;;17.30;82.20;;;;;;4133318;28;20043;-50
2023/07/22 04:23:17;;;;;;;9.75;5.30;;;17.20;82.20;;;;;;4132976;28;20491;-50
2023/07/22 04:25:20;;;;;;;6.70;4.82;;;17.30;82.30;;;;;;4133200;28;20042;-50
2023/07/22 04:27:22;;;;;;;8.88;5.20;;;17.20;82.30;;;;;;4133333;28;20053;-50
2023/07/22 04:29:24;;;;;;;9.55;5.00;;;17.30;82.20;;;;;;4131781;28;20038;-50
2023/07/22 04:31:26;;;;;;;7.30;5.10;;;17.30;82.40;;;;;;4133005;28;20425;-50
2023/07/22 04:33:28;;;;;;;6.25;5.03;;;17.30;82.50;;;;;;4132996;28;20117;-49
2023/07/22 04:35:31;;;;;;;7.50;4.65;;;17.30;82.40;;;;;;4133006;28;20521;-48
2023/07/22 04:37:33;;;;;;;9.90;5.53;;;17.30;82.50;;;;;;4133131;28;20074;-51
2023/07/22 04:39:37;;;;;;;10.23;5.57;;;17.30;82.70;;;;;;4131863;28;20450;-48
2023/07/22 04:41:39;;;;;;;8.60;5.78;;;17.30;82.50;;;;;;4133295;28;20070;-48
2023/07/22 04:43:41;;;;;;;10.02;5.72;;;17.40;82.20;;;;;;4131811;28;20050;-49
2023/07/22 04:45:44;;;;;;;6.63;5.13;;;17.40;82.00;;;;;;4129667;28;20108;-48
2023/07/22 04:47:48;;;;;;;7.80;4.95;;;17.40;81.60;;;;;;4132912;28;20050;-49
2023/07/22 04:49:50;;;;;;;12.02;5.78;;;17.30;81.50;;;;;;4131614;28;20409;-49
2023/07/22 04:51:52;;;;;;;10.05;5.68;;;17.30;81.30;;;;;;4132892;28;20049;-49
2023/07/22 04:53:54;;;;;;;8.30;5.32;;;17.30;81.40;;;;;;4132422;28;20086;-53
2023/07/22 04:55:58;;;;;;;10.35;5.22;;;17.40;81.30;;;;;;4132671;28;20314;-53
2023/07/22 04:58:00;;;;;;;7.55;5.53;;;17.40;81.60;;;;;;4132271;28;20113;-53
2023/07/22 05:00:09;;;;;;;9.40;5.75;;;17.40;81.50;;;;;;4132550;28;20165;-53
2023/07/22 05:02:11;;;;;;;7.53;4.95;;;17.40;81.20;;;;;;4132543;28;20049;-52
2023/07/22 05:04:13;;;;;;;10.88;5.68;;;17.40;81.20;;;;;;4132558;28;20138;-53
2023/07/22 05:06:15;;;;;;;9.75;5.50;;;17.40;81.50;;;;;;4132482;28;20410;-53
2023/07/22 05:08:17;;;;;;;9.40;5.47;;;17.50;81.60;;;;;;4131623;28;20365;-53
2023/07/22 05:10:20;;;;;;;7.32;4.95;;;17.50;81.30;;;;;;4132380;28;20100;-53
2023/07/22 05:12:23;;;;;;;9.00;5.47;;;17.50;81.30;;;;;;4132561;28;20050;-53
2023/07/22 05:14:25;;;;;;;10.25;5.03;;;17.50;81.20;;;;;;4132454;28;20061;-51
2023/07/22 05:16:27;;;;;;;7.95;4.97;;;17.50;81.40;;;;;;4132598;28;20058;-51
2023/07/22 05:18:30;;;;;;;7.45;4.80;;;17.50;81.50;;;;;;4131526;28;20501;-51
2023/07/22 05:20:32;;;;;;;8.88;5.57;;;17.60;81.40;;;;;;4130878;28;20042;-51
2023/07/22 05:22:34;;;;;;;8.50;5.18;;;17.60;81.30;;;;;;4132082;28;20093;-50
2023/07/22 05:24:37;;;;;;;9.13;5.43;;;17.70;81.20;;;;;;4132412;28;20061;-49
2023/07/22 05:26:39;;;;;;;7.05;5.03;;;17.60;81.20;;;;;;4136403;28;20050;-48
2023/07/22 05:28:46;;;;;;;13.15;5.97;;;17.70;81.00;;;;;;4131302;28;20069;-49
2023/07/22 05:30:48;;;;;;;7.38;4.72;;;17.70;80.90;;;;;;4130826;28;20057;-49
2023/07/22 05:32:52;;;;;;;15.25;5.43;;;17.70;80.80;;;;;;4132153;28;20052;-49
2023/07/22 05:34:54;;;;;;;11.73;5.25;;;17.70;80.80;;;;;;4132210;28;20050;-49
2023/07/22 05:36:56;;;;;;;8.73;5.70;;;17.70;81.30;;;;;;4131806;28;20085;-49
2023/07/22 05:38:58;;;;;;;8.32;5.38;;;17.70;80.80;;;;;;4129869;28;20046;-49
2023/07/22 05:41:00;;;;;;;9.93;5.30;;;17.80;80.70;;;;;;4131818;28;20039;-50
2023/07/22 05:43:02;;;;;;;7.30;5.13;;;17.80;80.50;;;;;;4121299;28;20046;-49
2023/07/22 05:45:07;;;;;;;8.95;5.57;;;17.90;80.80;;;;;;4131840;28;20054;-49
2023/07/22 05:47:09;;;;;;;7.97;5.43;;;17.90;81.10;;;;;;4131906;28;20046;-50
2023/07/22 05:49:11;;;;;;;11.93;5.90;;;17.90;80.70;;;;;;4130907;28;20052;-50
2023/07/22 05:51:14;;;;;;;6.50;5.07;;;18.00;80.50;;;;;;4131606;28;20125;-49
2023/07/22 05:53:17;;;;;;;6.30;4.90;;;18.00;80.60;;;;;;4132135;28;20047;-52
2023/07/22 05:55:19;;;;;;;6.35;4.72;;;17.90;80.80;;;;;;4130622;28;20432;-53
2023/07/22 05:57:21;;;;;;;9.55;4.82;;;18.00;81.10;;;;;;4138440;28;20069;-52
2023/07/22 05:59:23;;;;;;;6.93;4.95;;;18.10;80.80;;;;;;4130599;28;20116;-50
2023/07/22 06:01:26;;;;;;;9.27;5.00;;;18.20;81.00;;;;;;4131552;28;20073;-50
2023/07/22 06:03:29;;;;;;;9.23;5.95;;;18.20;81.10;;;;;;4131586;28;20073;-50
2023/07/22 06:05:31;;;;;;;11.50;5.80;;;18.20;80.50;;;;;;4131653;28;20125;-50
2023/07/22 06:07:33;;;;;;;8.45;5.50;;;18.30;80.30;;;;;;4130168;28;20197;-49
2023/07/22 06:09:35;;;;;;;8.20;5.38;;;18.30;80.60;;;;;;4130458;28;20076;-50
2023/07/22 06:11:37;;;;;;;8.30;5.38;;;18.20;81.10;;;;;;4131408;28;20161;-48
2023/07/22 06:13:39;;;;;;;12.02;5.60;;;18.30;80.50;;;;;;4131512;28;20042;-49
2023/07/22 06:15:42;;;;;;;9.60;5.10;;;18.40;80.30;;;;;;4131532;28;20580;-49
2023/07/22 06:17:45;;;;;;;13.25;5.45;;;18.50;80.40;;;;;;4130135;28;20133;-49
2023/07/22 06:19:47;;;;;;;6.20;5.10;;;18.50;81.20;;;;;;4130582;28;20050;-49
2023/07/22 06:21:49;;;;;;;10.02;5.18;;;18.50;81.40;;;;;;4131162;28;20405;-51
2023/07/22 06:23:51;;;;;;;8.00;5.65;;;18.60;81.70;;;;;;4131273;28;20563;-51
2023/07/22 06:25:53;;;;;;;9.25;5.93;;;18.60;81.80;;;;;;4129918;28;20057;-49
2023/07/22 06:27:56;;;;;;;11.00;5.60;;;18.70;81.50;;;;;;4131190;28;20046;-51
2023/07/22 06:29:58;;;;;;;9.63;5.05;;;18.80;81.10;;;;;;4130556;28;20410;-51
2023/07/22 06:32:00;;;;;;;10.35;5.90;;;18.80;80.90;;;;;;4131409;28;20076;-51
2023/07/22 06:34:03;;;;;;;6.85;5.53;;;18.90;80.90;;;;;;4130997;28;20061;-51
2023/07/22 06:36:05;;;;;;;9.57;5.22;;;18.90;80.90;;;;;;4131373;28;20050;-49
2023/07/22 06:38:08;;;;;;;6.65;4.88;;;19.00;82.50;;;;;;4131062;28;20125;-50
2023/07/22 06:40:11;;;;;;;12.20;5.70;;;18.90;82.90;;;;;;4130031;28;20042;-48
2023/07/22 06:42:13;;;;;;;9.40;5.45;;;19.00;83.30;;;;;;4131364;28;20050;-52
2023/07/22 06:44:15;;;;;;;10.85;5.53;;;18.90;84.30;;;;;;4113778;28;20486;-50
2023/07/22 06:46:17;;;;;;;10.27;6.22;;;18.90;84.70;;;;;;4131347;28;20050;-51
2023/07/22 06:48:19;;;;;;;7.57;5.50;;;19.10;85.00;;;;;;4130667;28;20621;-51
2023/07/22 06:50:23;;;;;;;12.20;6.28;;;19.10;85.10;;;;;;4130500;28;20076;-49
2023/07/22 06:52:25;;;;;;;9.38;6.03;;;19.10;85.50;;;;;;4131123;28;20339;-50
2023/07/22 06:54:27;;;;;;;7.80;5.00;;;19.20;85.90;;;;;;4130538;28;20061;-51
2023/07/22 06:56:30;;;;;;;9.35;5.82;;;19.20;86.70;;;;;;4131129;28;20117;-52
2023/07/22 06:58:32;;;;;;;9.80;5.47;;;19.30;85.80;;;;;;4129867;28;20052;-51
2023/07/22 07:00:34;;;;;;;14.70;5.40;;;19.40;85.30;;;;;;4130976;28;20074;-50
2023/07/22 07:02:36;;;;;;;10.68;5.55;;;19.50;85.40;;;;;;4131430;28;20053;-50
2023/07/22 07:04:39;;;;;;;9.23;4.50;;;19.50;84.70;;;;;;4121843;28;20046;-50
2023/07/22 07:06:42;;;;;;;9.23;5.82;;;19.50;84.50;;;;;;4131187;28;20038;-49
2023/07/22 07:08:44;;;;;;;9.13;5.57;;;19.60;84.70;;;;;;4129529;28;20052;-50
2023/07/22 07:10:46;;;;;;;9.18;5.03;;;19.70;84.90;;;;;;4113422;28;20061;-49
2023/07/22 07:12:48;;;;;;;9.77;5.35;;;19.70;84.40;;;;;;4131189;28;20423;-51
2023/07/22 07:14:51;;;;;;;10.07;5.38;;;19.90;84.40;;;;;;4130677;28;20506;-50
2023/07/22 07:16:53;;;;;;;10.57;4.90;;;19.90;84.20;;;;;;4130819;28;20042;-51
2023/07/22 07:18:55;;;;;;;10.07;5.82;;;20.10;83.10;;;;;;4128526;28;20061;-50
2023/07/22 07:20:57;;;;;;;8.23;5.35;;;20.30;82.90;;;;;;4130605;28;20125;-54
2023/07/22 07:23:01;;;;;;;9.40;4.82;;;20.50;82.10;;;;;;4130308;28;20050;-50
2023/07/22 07:25:03;;;;;;;8.32;5.78;;;20.50;81.60;;;;;;4130482;28;20142;-48
2023/07/22 07:27:06;;;;;;;8.93;5.00;;;20.50;81.80;;;;;;4130790;28;20101;-50
2023/07/22 07:29:08;;;;;;;9.50;5.05;;;20.50;82.00;;;;;;4129619;28;20147;-50
2023/07/22 07:31:10;;;;;;;9.25;5.05;;;20.60;81.70;;;;;;4130631;28;20050;-49
2023/07/22 07:33:12;;;;;;;8.57;4.97;;;20.60;81.30;;;;;;4130853;28;20046;-50
2023/07/22 07:35:14;;;;;;;8.18;5.10;;;20.80;81.30;;;;;;4130374;28;20512;-51
2023/07/22 07:37:17;;;;;;;8.98;5.25;;;21.00;81.50;;;;;;4130448;28;20046;-51
2023/07/22 07:39:20;;;;;;;9.18;5.30;;;21.00;81.30;;;;;;4130022;28;20366;-52
2023/07/22 07:41:22;;;;;;;7.68;4.88;;;21.00;81.40;;;;;;4129124;28;20042;-52
2023/07/22 07:43:24;;;;;;;9.00;5.22;;;21.00;80.60;;;;;;4130661;28;20046;-51
2023/07/22 07:45:26;;;;;;;8.25;5.50;;;20.80;80.60;;;;;;4130536;28;20114;-51
2023/07/22 07:47:28;;;;;;;8.65;5.22;;;20.60;80.90;;;;;;4130704;28;20104;-52
2023/07/22 07:49:31;;;;;;;12.05;5.55;;;20.60;81.20;;;;;;4129645;28;20046;-52
2023/07/22 07:51:33;;;;;;;8.18;5.70;;;20.60;81.60;;;;;;4130351;28;20042;-51
2023/07/22 07:53:35;;;;;;;7.82;5.13;;;20.90;81.30;;;;;;4130712;28;20050;-50
2023/07/22 07:55:38;;;;;;;7.40;5.25;;;21.00;81.40;;;;;;4130252;28;20050;-51
2023/07/22 07:57:40;;;;;;;9.60;5.78;;;20.90;81.10;;;;;;4130732;28;20460;-51
2023/07/22 07:59:42;;;;;;;8.85;5.38;;;21.00;81.00;;;;;;4129694;28;20110;-50
2023/07/22 08:01:45;;;;;;;9.48;4.78;;;21.20;80.50;;;;;;4130434;28;20054;-50
2023/07/22 08:03:47;;;;;;;14.05;5.90;;;21.40;80.10;;;;;;4130842;28;20073;-48
2023/07/22 08:05:49;;;;;;;14.35;5.28;;;21.40;80.10;;;;;;4109026;28;20094;-50
2023/07/22 08:07:51;;;;;;;6.45;5.32;;;21.40;80.00;;;;;;4119728;28;20112;-51
2023/07/22 08:09:54;;;;;;;9.70;5.20;;;21.40;79.30;;;;;;4129599;28;20074;-51
2023/07/22 08:11:57;;;;;;;9.85;5.10;;;21.40;79.20;;;;;;4130418;28;20418;-52
2023/07/22 08:13:59;;;;;;;16.25;6.07;;;21.50;79.00;;;;;;4130942;28;20051;-51
2023/07/22 08:16:01;;;;;;;9.52;6.05;;;21.60;78.50;;;;;;4130355;28;20050;-52
2023/07/22 08:18:03;;;;;;;8.25;5.30;;;21.60;78.70;;;;;;4130556;28;20199;-54
2023/07/22 08:20:08;;;;;;;7.78;5.45;;;21.80;78.30;;;;;;4132465;28;20125;-52
2023/07/22 08:22:10;;;;;;;6.82;5.05;;;21.90;77.90;;;;;;4132831;28;20097;-53
2023/07/22 08:24:13;;;;;;;5.72;4.50;;;21.90;77.20;;;;;;4133511;28;20422;-52
2023/07/22 08:26:20;;;;;;;6.88;5.13;;;22.00;77.20;;;;;;4115891;28;20458;-50
2023/07/22 08:28:24;;;;;;;6.75;4.30;;;22.00;76.90;;;;;;4116108;28;20131;-49
2023/07/22 08:30:26;;;;;;;8.70;4.35;;;22.00;76.40;;;;;;4131541;28;20053;-50
2023/07/22 08:32:28;;;;;;;8.52;5.10;;;22.00;76.30;;;;;;4133400;28;20140;-50
2023/07/22 08:34:30;;;;;;;7.78;4.22;;;21.80;76.50;;;;;;4133171;28;20096;-50
2023/07/22 08:36:32;;;;;;;9.10;5.65;;;21.90;76.10;;;;;;4132856;28;20042;-49
2023/07/22 08:38:34;;;;;;;7.80;4.78;;;21.90;76.10;;;;;;4132948;28;20043;-50
2023/07/22 08:40:38;;;;;;;7.22;4.47;;;21.90;75.80;;;;;;4132272;28;20414;-49
2023/07/22 08:42:41;;;;;;;7.78;5.15;;;21.90;75.70;;;;;;4132888;28;20046;-50
2023/07/22 08:44:48;;;;;;;7.60;5.00;;;21.80;75.90;;;;;;4133172;28;20049;-49
2023/07/22 08:46:56;;;;;;;7.63;4.55;;;21.80;76.40;;;;;;4132314;28;20097;-51
2023/07/22 08:49:00;;;;;;;7.25;4.95;;;21.80;76.40;;;;;;4131273;28;20073;-52
2023/07/22 08:51:07;;;;;;;7.45;4.57;;;21.80;76.60;;;;;;4133051;28;20093;-53
2023/07/22 08:53:10;;;;;;;7.65;4.68;;;21.90;76.40;;;;;;4133004;28;20361;-53
2023/07/22 08:55:13;;;;;;;5.90;4.85;;;22.00;76.20;;;;;;4133195;28;20054;-52
2023/07/22 08:57:16;;;;;;;8.02;4.43;;;22.10;76.10;;;;;;4133511;28;20077;-53
2023/07/22 08:59:19;;;;;;;5.75;4.38;;;22.20;75.30;;;;;;4131758;28;20058;-52
2023/07/22 09:01:24;;;;;;;10.18;5.00;;;22.40;75.50;;;;;;4132699;28;20042;-53
2023/07/22 09:03:26;;;;;;;5.20;4.03;;;22.40;75.00;;;;;;4132915;28;20051;-52
2023/07/22 09:05:30;;;;;;;7.50;4.50;;;22.50;75.00;;;;;;4132237;28;20120;-52
2023/07/22 09:07:33;;;;;;;8.02;4.53;;;22.50;74.30;;;;;;4131422;28;20137;-51
2023/07/22 09:09:36;;;;;;;9.75;4.53;;;22.70;74.50;;;;;;4114458;28;20055;-52
2023/07/22 09:11:39;;;;;;;5.18;4.30;;;22.70;74.00;;;;;;4132843;28;20278;-49
2023/07/22 09:13:44;;;;;;;6.95;4.47;;;22.80;74.00;;;;;;4132248;28;20057;-52
2023/07/22 09:15:48;;;;;;;5.32;4.15;;;22.80;74.00;;;;;;4132572;28;20105;-50
2023/07/22 09:17:51;;;;;;;10.35;4.47;;;22.80;74.10;;;;;;4127933;28;20531;-51
2023/07/22 09:19:53;;;;;;;6.63;4.30;;;22.90;74.10;;;;;;4124155;28;20042;-54
2023/07/22 09:21:55;;;;;;;9.82;4.30;;;23.10;73.70;;;;;;4128605;28;20051;-53
2023/07/22 09:23:57;;;;;;;6.95;4.20;;;23.10;72.80;;;;;;4127045;28;20137;-51
2023/07/22 09:26:08;;;;;;;11.18;4.20;;;23.20;73.10;;;;;;4133599;28;20046;-52
2023/07/22 09:28:10;;;;;;;6.20;3.92;;;23.20;72.80;;;;;;4128101;28;20039;-53
2023/07/22 09:30:24;;;;;;;11.05;4.05;;;23.10;72.50;;;;;;4129972;28;20042;-52
2023/07/22 09:32:35;;;;;;;6.53;4.10;;;23.10;72.60;;;;;;4126721;28;20141;-50
2023/07/22 09:34:55;;;;;;;10.20;3.72;;;23.20;71.80;;;;;;4129672;28;20487;-52
2023/07/22 09:37:03;;;;;;;40.42;5.43;;;23.10;70.20;;;;;;4132043;28;20054;-51
2023/07/22 09:39:07;;;;;;;9.93;3.95;;;23.10;70.20;;;;;;4130499;28;20066;-52
2023/07/22 09:41:09;;;;;;;4.75;3.03;;;23.20;70.70;;;;;;4131460;28;20050;-51
2023/07/22 09:43:12;;;;;;;6.32;3.63;;;23.30;70.90;;;;;;4130465;28;20054;-51
2023/07/22 09:45:14;;;;;;;5.82;3.58;;;23.30;70.30;;;;;;4131776;28;20057;-52
2023/07/22 09:47:16;;;;;;;5.13;3.30;;;23.40;69.80;;;;;;4130329;28;20574;-52
2023/07/22 09:49:20;;;;;;;8.18;3.65;;;23.50;69.90;;;;;;4130475;28;20125;-53
2023/07/22 09:51:33;;;;;;;6.05;3.85;;;23.60;69.60;;;;;;4131677;28;20108;-50
2023/07/22 09:53:46;;;;;;;6.65;3.22;;;23.60;69.80;;;;;;4108915;28;20574;-49
2023/07/22 09:55:52;;;;;;;9.60;3.83;;;23.60;69.80;;;;;;4131238;28;20064;-49
2023/07/22 09:57:57;;;;;;;10.27;3.78;;;23.60;69.40;;;;;;4125061;28;20057;-50
2023/07/22 09:59:59;;;;;;;13.70;4.50;;;23.70;68.70;;;;;;4130062;28;20502;-49
2023/07/22 10:02:02;;;;;;;12.07;4.00;;;23.50;68.80;;;;;;4130858;28;20108;-52
2023/07/22 10:04:06;;;;;;;7.13;3.80;;;23.50;69.50;;;;;;4131535;28;20046;-53
2023/07/22 10:06:09;;;;;;;7.80;3.88;;;23.70;68.90;;;;;;4131507;28;20077;-52
2023/07/22 10:08:14;;;;;;;8.20;3.33;;;23.90;69.00;;;;;;4115507;28;20046;-52
2023/07/22 10:10:18;;;;;;;5.90;3.30;;;24.10;68.60;;;;;;4121677;28;20411;-52
2023/07/22 10:12:20;;;;;;;6.03;3.45;;;24.20;68.10;;;;;;4131773;28;20053;-53
2023/07/22 10:14:22;;;;;;;6.10;3.10;;;24.10;68.00;;;;;;4131464;28;20050;-53
2023/07/22 10:16:25;;;;;;;9.85;3.70;;;24.00;67.60;;;;;;4130906;28;20100;-52
2023/07/22 10:18:29;;;;;;;7.05;3.58;;;23.90;68.40;;;;;;4130182;28;20098;-52
2023/07/22 10:20:36;;;;;;;5.97;3.13;;;23.70;68.10;;;;;;4130164;28;20074;-52
2023/07/22 10:22:39;;;;;;;7.70;3.80;;;23.40;69.10;;;;;;4131495;28;20046;-51
2023/07/22 10:24:46;;;;;;;5.78;3.53;;;23.20;69.30;;;;;;4131075;28;20053;-52
2023/07/22 10:26:51;;;;;;;7.80;3.85;;;23.20;70.40;;;;;;4114550;28;20060;-52
2023/07/22 10:28:56;;;;;;;6.78;3.78;;;23.40;69.80;;;;;;4112197;28;20053;-52
2023/07/22 10:30:59;;;;;;;12.82;4.40;;;23.60;70.00;;;;;;4115755;28;20074;-52
2023/07/22 10:33:02;;;;;;;8.63;4.05;;;23.70;69.60;;;;;;4117478;28;20047;-53
2023/07/22 10:35:08;;;;;;;5.30;3.40;;;23.80;69.00;;;;;;4135287;28;20054;-52
2023/07/22 10:37:15;;;;;;;7.15;3.33;;;24.00;69.50;;;;;;4132322;28;20046;-52
2023/07/22 10:39:29;;;;;;;7.90;3.60;;;24.00;69.00;;;;;;4129015;28;20089;-52